Time,TemperatureF,DewpointF,PressureIn,WindDirection,WindDirectionDegrees,WindSpeedMPH,WindSpeedGustMPH,Humidity,HourlyPrecipIn,Conditions,Clouds,dailyrainin,SolarRadiationWatts/m^2,SoftwareType,DateUTC
2013-05-24 00:02:00,74.0,72.0,-100.00,South,177,3.0,7.0,94,0.00,,,0.00,0.000000,,2013-05-24 05:02:00,
2013-05-24 00:32:00,73.0,71.0,-100.00,WNW,284,1.0,5.0,95,0.00,,,0.00,0.000000,,2013-05-24 05:32:00,
2013-05-24 00:42:00,73.0,71.0,-100.00,WNW,284,1.0,5.0,95,0.00,,,0.00,0.000000,,2013-05-24 05:42:00,
2013-05-24 00:52:00,73.0,71.0,-100.00,WNW,284,1.0,5.0,95,0.00,,,0.00,0.000000,,2013-05-24 05:52:00,
2013-05-24 01:02:00,73.0,71.0,-100.00,WNW,284,1.0,5.0,95,0.00,,,0.00,0.000000,,2013-05-24 06:02:00,
2013-05-24 01:32:00,72.0,71.0,-100.00,South,187,1.0,4.0,96,0.00,,,0.00,0.000000,,2013-05-24 06:32:00,
2013-05-24 01:42:00,72.0,71.0,-100.00,South,187,1.0,4.0,96,0.00,,,0.00,0.000000,,2013-05-24 06:42:00,
2013-05-24 01:52:00,72.0,71.0,-100.00,South,187,1.0,4.0,96,0.00,,,0.00,0.000000,,2013-05-24 06:52:00,
2013-05-24 02:01:00,72.0,71.0,-100.00,South,187,1.0,4.0,96,0.00,,,0.00,0.000000,,2013-05-24 07:01:00,
2013-05-24 02:32:00,71.0,70.0,-100.00,NE,42,2.0,3.0,97,0.00,,,0.00,0.000000,,2013-05-24 07:32:00,
2013-05-24 02:42:00,71.0,70.0,-100.00,NE,42,2.0,3.0,97,0.00,,,0.00,0.000000,,2013-05-24 07:42:00,
2013-05-24 02:52:00,71.0,70.0,-100.00,NE,42,2.0,3.0,97,0.00,,,0.00,0.000000,,2013-05-24 07:52:00,
2013-05-24 03:02:00,71.0,70.0,-100.00,NE,42,2.0,3.0,97,0.00,,,0.00,0.000000,,2013-05-24 08:02:00,
2013-05-24 03:33:00,70.0,69.0,-100.00,SW,231,0.0,4.0,97,0.00,,,0.00,0.000000,,2013-05-24 08:33:00,
2013-05-24 03:42:00,70.0,69.0,-100.00,SW,231,0.0,4.0,97,0.00,,,0.00,0.000000,,2013-05-24 08:42:00,
2013-05-24 03:52:00,70.0,69.0,-100.00,SW,231,0.0,4.0,97,0.00,,,0.00,0.000000,,2013-05-24 08:52:00,
2013-05-24 04:01:00,70.0,69.0,-100.00,SW,231,0.0,4.0,97,0.00,,,0.00,0.000000,,2013-05-24 09:01:00,
2013-05-24 04:33:00,70.0,69.0,-100.00,ESE,120,2.0,4.0,97,0.00,,,0.00,0.000000,,2013-05-24 09:33:00,
2013-05-24 04:42:00,70.0,69.0,-100.00,ESE,120,2.0,4.0,97,0.00,,,0.00,0.000000,,2013-05-24 09:42:00,
2013-05-24 04:53:00,70.0,69.0,-100.00,ESE,120,2.0,4.0,97,0.00,,,0.00,0.000000,,2013-05-24 09:53:00,
2013-05-24 05:03:00,70.0,69.0,-100.00,ESE,120,2.0,4.0,97,0.00,,,0.00,0.000000,,2013-05-24 10:03:00,
2013-05-24 05:33:00,70.0,69.0,-100.00,WSW,250,0.0,4.0,97,0.00,,,0.00,0.000000,,2013-05-24 10:33:00,
2013-05-24 05:42:00,70.0,69.0,-100.00,WSW,250,0.0,4.0,97,0.00,,,0.00,0.000000,,2013-05-24 10:42:00,
2013-05-24 05:53:00,70.0,69.0,-100.00,WSW,250,0.0,4.0,97,0.00,,,0.00,0.000000,,2013-05-24 10:53:00,
2013-05-24 06:02:00,70.0,69.0,-100.00,WSW,250,0.0,4.0,97,0.00,,,0.00,0.000000,,2013-05-24 11:02:00,
2013-05-24 06:32:00,70.0,69.0,-100.00,East,95,3.0,4.0,98,0.00,,,0.00,0.000000,,2013-05-24 11:32:00,
2013-05-24 06:42:00,70.0,69.0,-100.00,East,95,3.0,4.0,98,0.00,,,0.00,0.000000,,2013-05-24 11:42:00,
2013-05-24 06:52:00,70.0,69.0,-100.00,East,95,3.0,4.0,98,0.00,,,0.00,0.000000,,2013-05-24 11:52:00,
2013-05-24 07:02:00,70.0,69.0,-100.00,East,95,3.0,4.0,98,0.00,,,0.00,0.000000,,2013-05-24 12:02:00,
2013-05-24 07:33:00,71.0,70.0,-100.00,East,99,3.0,5.0,98,0.00,,,0.00,12.000000,,2013-05-24 12:33:00,
2013-05-24 07:42:00,71.0,70.0,-100.00,East,99,3.0,5.0,98,0.00,,,0.00,12.000000,,2013-05-24 12:42:00,
2013-05-24 07:52:00,71.0,70.0,-100.00,East,99,3.0,5.0,98,0.00,,,0.00,12.000000,,2013-05-24 12:52:00,
2013-05-24 08:02:00,71.0,70.0,-100.00,East,99,3.0,5.0,98,0.00,,,0.00,12.000000,,2013-05-24 13:02:00,
2013-05-24 08:32:00,72.0,71.0,-100.00,East,100,2.0,6.0,98,0.00,,,0.00,57.000000,,2013-05-24 13:32:00,
2013-05-24 08:42:00,72.0,71.0,-100.00,East,100,2.0,6.0,98,0.00,,,0.00,57.000000,,2013-05-24 13:42:00,
2013-05-24 08:52:00,72.0,71.0,-100.00,East,100,2.0,6.0,98,0.00,,,0.00,57.000000,,2013-05-24 13:52:00,
2013-05-24 09:01:00,72.0,71.0,-100.00,East,100,2.0,6.0,98,0.00,,,0.00,57.000000,,2013-05-24 14:01:00,
2013-05-24 09:32:00,75.0,74.0,-100.00,ENE,66,3.0,5.0,98,0.00,,,0.00,162.000000,,2013-05-24 14:32:00,
2013-05-24 09:42:00,75.0,74.0,-100.00,ENE,66,3.0,5.0,98,0.00,,,0.00,162.000000,,2013-05-24 14:42:00,
2013-05-24 09:52:00,75.0,74.0,-100.00,ENE,66,3.0,5.0,98,0.00,,,0.00,162.000000,,2013-05-24 14:52:00,
2013-05-24 10:02:00,75.0,74.0,-100.00,ENE,66,3.0,5.0,98,0.00,,,0.00,162.000000,,2013-05-24 15:02:00,
2013-05-24 10:33:00,79.0,76.0,-100.00,ENE,60,3.0,5.0,90,0.00,,,0.00,251.000000,,2013-05-24 15:33:00,
2013-05-24 10:43:00,79.0,76.0,-100.00,ENE,60,3.0,5.0,90,0.00,,,0.00,251.000000,,2013-05-24 15:43:00,
2013-05-24 10:52:00,79.0,76.0,-100.00,ENE,60,3.0,5.0,90,0.00,,,0.00,251.000000,,2013-05-24 15:52:00,
2013-05-24 11:03:00,79.0,76.0,-100.00,ENE,60,3.0,5.0,90,0.00,,,0.00,251.000000,,2013-05-24 16:03:00,
2013-05-24 11:33:00,85.0,77.0,-100.00,SE,127,4.0,7.0,76,0.00,,,0.00,483.000000,,2013-05-24 16:33:00,
2013-05-24 11:42:00,85.0,77.0,-100.00,SE,127,4.0,7.0,76,0.00,,,0.00,483.000000,,2013-05-24 16:42:00,
2013-05-24 11:52:00,85.0,77.0,-100.00,SE,127,4.0,7.0,76,0.00,,,0.00,483.000000,,2013-05-24 16:52:00,
2013-05-24 12:02:00,85.0,77.0,-100.00,SE,127,4.0,7.0,76,0.00,,,0.00,483.000000,,2013-05-24 17:02:00,
2013-05-24 12:32:00,88.0,75.0,-100.00,SE,135,6.0,10.0,66,0.00,,,0.00,720.000000,,2013-05-24 17:32:00,
2013-05-24 12:42:00,88.0,75.0,-100.00,SE,135,6.0,10.0,66,0.00,,,0.00,720.000000,,2013-05-24 17:42:00,
2013-05-24 12:52:00,88.0,75.0,-100.00,SE,135,6.0,10.0,66,0.00,,,0.00,720.000000,,2013-05-24 17:52:00,
2013-05-24 13:01:00,88.0,75.0,-100.00,SE,135,6.0,10.0,66,0.00,,,0.00,720.000000,,2013-05-24 18:01:00,
2013-05-24 13:32:00,87.0,73.0,-100.00,SE,133,3.0,9.0,64,0.00,,,0.00,601.000000,,2013-05-24 18:32:00,
2013-05-24 13:42:00,87.0,73.0,-100.00,SE,133,3.0,9.0,64,0.00,,,0.00,601.000000,,2013-05-24 18:42:00,
2013-05-24 13:52:00,87.0,73.0,-100.00,SE,133,3.0,9.0,64,0.00,,,0.00,601.000000,,2013-05-24 18:52:00,
2013-05-24 14:01:00,87.0,73.0,-100.00,SE,133,3.0,9.0,64,0.00,,,0.00,601.000000,,2013-05-24 19:01:00,
2013-05-24 14:32:00,90.0,74.0,-100.00,East,96,5.0,10.0,60,0.00,,,0.00,710.000000,,2013-05-24 19:32:00,
2013-05-24 14:42:00,90.0,74.0,-100.00,East,96,5.0,10.0,60,0.00,,,0.00,710.000000,,2013-05-24 19:42:00,
2013-05-24 14:52:00,90.0,74.0,-100.00,East,96,5.0,10.0,60,0.00,,,0.00,710.000000,,2013-05-24 19:52:00,
2013-05-24 15:02:00,90.0,74.0,-100.00,East,96,5.0,10.0,60,0.00,,,0.00,710.000000,,2013-05-24 20:02:00,
2013-05-24 15:32:00,91.0,74.0,-100.00,ESE,106,5.0,10.0,58,0.00,,,0.00,662.000000,,2013-05-24 20:32:00,
2013-05-24 15:42:00,91.0,74.0,-100.00,ESE,106,5.0,10.0,58,0.00,,,0.00,662.000000,,2013-05-24 20:42:00,
2013-05-24 15:52:00,91.0,74.0,-100.00,ESE,106,5.0,10.0,58,0.00,,,0.00,662.000000,,2013-05-24 20:52:00,
2013-05-24 16:01:00,91.0,74.0,-100.00,ESE,106,5.0,10.0,58,0.00,,,0.00,662.000000,,2013-05-24 21:01:00,
2013-05-24 16:33:00,89.0,74.0,-100.00,East,97,6.0,12.0,62,0.00,,,0.00,425.000000,,2013-05-24 21:33:00,
2013-05-24 16:43:00,89.0,74.0,-100.00,East,97,6.0,12.0,62,0.00,,,0.00,425.000000,,2013-05-24 21:43:00,
2013-05-24 16:53:00,89.0,74.0,-100.00,East,97,6.0,12.0,62,0.00,,,0.00,425.000000,,2013-05-24 21:53:00,
2013-05-24 17:02:00,89.0,74.0,-100.00,East,97,6.0,12.0,62,0.00,,,0.00,425.000000,,2013-05-24 22:02:00,
2013-05-24 17:33:00,80.0,71.0,-100.00,SW,235,4.0,11.0,75,0.00,,,0.00,96.000000,,2013-05-24 22:33:00,
2013-05-24 17:42:00,80.0,71.0,-100.00,SW,235,4.0,11.0,75,0.00,,,0.00,96.000000,,2013-05-24 22:42:00,
2013-05-24 17:52:00,80.0,71.0,-100.00,SW,235,4.0,11.0,75,0.00,,,0.00,96.000000,,2013-05-24 22:52:00,
2013-05-24 18:02:00,80.0,71.0,-100.00,SW,235,4.0,11.0,75,0.00,,,0.00,96.000000,,2013-05-24 23:02:00,
2013-05-24 18:32:00,75.0,69.0,-100.00,WSW,254,2.0,7.0,81,0.00,,,0.00,30.000000,,2013-05-24 23:32:00,
2013-05-24 18:42:00,75.0,69.0,-100.00,WSW,254,2.0,7.0,81,0.00,,,0.00,30.000000,,2013-05-24 23:42:00,
2013-05-24 18:52:00,75.0,69.0,-100.00,WSW,254,2.0,7.0,81,0.00,,,0.00,30.000000,,2013-05-24 23:52:00,
2013-05-24 19:01:00,75.0,69.0,-100.00,WSW,254,2.0,7.0,81,0.00,,,0.00,30.000000,,2013-05-25 00:01:00,
2013-05-24 19:32:00,74.0,70.0,-100.00,NNW,347,2.0,4.0,86,0.00,,,-99.99,16.000000,,2013-05-25 00:32:00,
2013-05-24 19:42:00,74.0,70.0,-100.00,NNW,347,2.0,4.0,86,0.00,,,-99.99,16.000000,,2013-05-25 00:42:00,
2013-05-24 19:52:00,74.0,70.0,-100.00,NNW,347,2.0,4.0,86,0.00,,,-99.99,16.000000,,2013-05-25 00:52:00,
2013-05-24 20:01:00,74.0,70.0,-100.00,NNW,347,2.0,4.0,86,0.00,,,-99.99,16.000000,,2013-05-25 01:01:00,
2013-05-24 20:32:00,74.0,71.0,-100.00,West,277,3.0,4.0,89,0.00,,,0.00,8.000000,,2013-05-25 01:32:00,
2013-05-24 20:42:00,74.0,71.0,-100.00,West,277,3.0,4.0,89,0.00,,,0.00,8.000000,,2013-05-25 01:42:00,
2013-05-24 20:52:00,74.0,71.0,-100.00,West,277,3.0,4.0,89,0.00,,,0.00,8.000000,,2013-05-25 01:52:00,
2013-05-24 21:01:00,74.0,71.0,-100.00,West,277,3.0,4.0,89,0.00,,,0.00,8.000000,,2013-05-25 02:01:00,
2013-05-24 21:32:00,73.0,71.0,-100.00,South,175,1.0,4.0,92,0.00,,,0.00,0.000000,,2013-05-25 02:32:00,
2013-05-24 21:42:00,73.0,71.0,-100.00,South,175,1.0,4.0,92,0.00,,,0.00,0.000000,,2013-05-25 02:42:00,
2013-05-24 21:52:00,73.0,71.0,-100.00,South,175,1.0,4.0,92,0.00,,,0.00,0.000000,,2013-05-25 02:52:00,
2013-05-24 22:01:00,73.0,71.0,-100.00,South,175,1.0,4.0,92,0.00,,,0.00,0.000000,,2013-05-25 03:01:00,
2013-05-24 22:33:00,72.0,70.0,-100.00,WSW,246,0.0,4.0,94,0.00,,,0.00,0.000000,,2013-05-25 03:33:00,
2013-05-24 22:43:00,72.0,70.0,-100.00,WSW,246,0.0,4.0,94,0.00,,,0.00,0.000000,,2013-05-25 03:43:00,
2013-05-24 22:53:00,72.0,70.0,-100.00,WSW,246,0.0,4.0,94,0.00,,,0.00,0.000000,,2013-05-25 03:53:00,
2013-05-24 23:02:00,72.0,70.0,-100.00,WSW,246,0.0,4.0,94,0.00,,,0.00,0.000000,,2013-05-25 04:02:00,
2013-05-24 23:33:00,72.0,70.0,-100.00,East,82,4.0,12.0,94,0.00,,,0.00,0.000000,,2013-05-25 04:33:00,
2013-05-24 23:43:00,72.0,70.0,-100.00,East,82,4.0,12.0,94,0.00,,,0.00,0.000000,,2013-05-25 04:43:00,
2013-05-24 23:53:00,72.0,70.0,-100.00,East,82,4.0,12.0,94,0.00,,,0.00,0.000000,,2013-05-25 04:53:00,